Time;durP1;ratioP1;P1;durP2;ratioP2;P2;SDS_P1;SDS_P2;PMS_P1;PMS_P2;Temp;Humidity;BMP_temperature;BMP_pressure;BME280_temperature;BME280_humidity;BME280_pressure;Samples;Min_cycle;Max_cycle;Signal;HPM_P1;HPM_P2
2023/11/10 00:00:54;;;;;;;0.47;0.20;;;;;;;5.91;100.00;95948.88;5064390;28;20037;-62
2023/11/10 00:03:21;;;;;;;0.10;0.10;;;;;;;5.94;100.00;95961.00;5062319;28;20103;-63
2023/11/10 00:05:48;;;;;;;0.82;0.20;;;;;;;6.02;100.00;95965.06;5064460;28;20420;-64
2023/11/10 00:08:15;;;;;;;0.65;0.20;;;;;;;5.94;100.00;95961.00;5052625;28;20070;-63
2023/11/10 00:10:42;;;;;;;0.70;0.38;;;;;;;6.01;100.00;95969.63;5062387;28;20040;-63
2023/11/10 00:13:09;;;;;;;0.50;0.20;;;;;;;6.04;100.00;95977.19;5065847;28;20063;-64
2023/11/10 00:15:36;;;;;;;2.33;0.22;;;;;;;6.03;100.00;95978.28;5064220;28;20102;-63
2023/11/10 00:18:02;;;;;;;1.17;0.30;;;;;;;6.04;100.00;95979.09;5064240;28;20041;-63
2023/11/10 00:20:30;;;;;;;0.20;0.20;;;;;;;6.02;100.00;95976.63;5066703;28;20507;-63
2023/11/10 00:22:57;;;;;;;0.68;0.30;;;;;;;5.94;100.00;95980.59;5062371;28;20067;-63
2023/11/10 00:25:23;;;;;;;0.77;0.20;;;;;;;5.91;100.00;95972.25;5063315;28;20039;-64
2023/11/10 00:27:50;;;;;;;0.30;0.30;;;;;;;5.87;100.00;95974.63;5044319;28;20499;-63
2023/11/10 00:30:18;;;;;;;0.75;0.22;;;;;;;5.93;100.00;95986.25;5043159;28;20051;-64
2023/11/10 00:32:46;;;;;;;0.75;0.38;;;;;;;5.86;100.00;95983.75;5062346;28;20036;-63
2023/11/10 00:35:12;;;;;;;1.67;0.47;;;;;;;5.67;100.00;95977.94;5060274;28;20037;-64
2023/11/10 00:37:39;;;;;;;0.55;0.30;;;;;;;5.63;100.00;95983.00;5061986;28;20123;-63
2023/11/10 00:40:06;;;;;;;1.30;0.50;;;;;;;5.63;100.00;95980.31;5061834;28;20051;-63
2023/11/10 00:42:33;;;;;;;0.40;0.28;;;;;;;5.59;100.00;95974.66;5060124;28;20048;-64
2023/11/10 00:44:59;;;;;;;0.45;0.30;;;;;;;5.66;100.00;95981.69;5045653;28;20048;-63
2023/11/10 00:47:26;;;;;;;0.55;0.30;;;;;;;5.68;100.00;95976.91;5063650;28;20056;-64
2023/11/10 00:49:53;;;;;;;0.43;0.20;;;;;;;5.64;100.00;95962.34;5062471;28;20055;-64
2023/11/10 00:52:20;;;;;;;0.63;0.20;;;;;;;5.62;100.00;95959.09;5072079;28;20512;-63
2023/11/10 00:54:48;;;;;;;1.00;0.40;;;;;;;5.43;100.00;95960.28;5069717;28;20037;-63
2023/11/10 00:57:15;;;;;;;0.45;0.30;;;;;;;5.31;100.00;95965.78;5066199;28;20052;-63
2023/11/10 00:59:42;;;;;;;0.20;0.17;;;;;;;5.17;100.00;95960.00;5065724;28;20053;-63
2023/11/10 01:02:09;;;;;;;0.40;0.20;;;;;;;5.14;100.00;95963.22;5046406;28;20139;-63
2023/11/10 01:04:35;;;;;;;0.43;0.15;;;;;;;5.19;100.00;95967.81;5061637;28;20048;-63
2023/11/10 01:07:02;;;;;;;1.00;0.20;;;;;;;5.26;100.00;95963.06;5064610;28;20075;-63
2023/11/10 01:09:29;;;;;;;0.70;0.25;;;;;;;5.21;100.00;95961.13;5064532;28;20632;-64
2023/11/10 01:11:56;;;;;;;0.63;0.30;;;;;;;5.21;100.00;95960.34;5048485;28;20040;-63
2023/11/10 01:14:22;;;;;;;0.10;0.10;;;;;;;5.28;100.00;95955.59;5049626;28;20046;-62
2023/11/10 01:16:49;;;;;;;0.85;0.40;;;;;;;5.21;100.00;95947.72;5050343;28;20530;-63
2023/11/10 01:19:17;;;;;;;0.52;0.28;;;;;;;5.19;100.00;95952.53;5046677;28;20094;-62
2023/11/10 01:21:46;;;;;;;0.40;0.32;;;;;;;5.13;100.00;95950.88;5065927;28;20047;-63
2023/11/10 01:24:13;;;;;;;2.92;0.35;;;;;;;5.10;100.00;95958.59;5048271;28;20036;-63
2023/11/10 01:26:39;;;;;;;1.27;0.30;;;;;;;5.09;100.00;95965.84;5065464;28;20037;-63
2023/11/10 01:29:06;;;;;;;0.30;0.20;;;;;;;5.14;100.00;95959.72;5047996;28;20071;-63
2023/11/10 01:31:33;;;;;;;0.55;0.20;;;;;;;5.21;100.00;95965.69;5063796;28;20195;-63
2023/11/10 01:33:59;;;;;;;0.30;0.20;;;;;;;5.23;100.00;95957.41;5064557;28;20094;-64
2023/11/10 01:36:26;;;;;;;2.08;0.40;;;;;;;5.25;100.00;95950.72;5047427;28;20036;-63
2023/11/10 01:38:55;;;;;;;0.20;0.20;;;;;;;5.23;100.00;95944.78;5061892;28;20041;-63
2023/11/10 01:41:22;;;;;;;0.40;0.20;;;;;;;5.37;100.00;95945.19;5058766;28;20739;-62
2023/11/10 01:43:50;;;;;;;0.40;0.20;;;;;;;5.49;100.00;95941.53;5050146;28;20048;-63
2023/11/10 01:46:32;;;;;;;0.82;0.20;;;;;;;5.59;100.00;95941.63;5064448;28;20047;-64
2023/11/10 01:48:58;;;;;;;0.65;0.30;;;;;;;5.62;100.00;95946.50;5062721;28;20055;-63
2023/11/10 01:51:29;;;;;;;1.20;0.30;;;;;;;5.55;100.00;95933.28;5047321;28;20139;-63
2023/11/10 01:53:56;;;;;;;0.25;0.20;;;;;;;5.54;100.00;95936.22;5064810;28;20109;-63
2023/11/10 01:56:23;;;;;;;0.20;0.20;;;;;;;5.47;100.00;95939.13;5064331;28;20036;-63
2023/11/10 01:58:51;;;;;;;1.25;0.47;;;;;;;5.47;100.00;95937.25;5047833;28;20131;-64
2023/11/10 02:01:18;;;;;;;0.68;0.30;;;;;;;5.51;100.00;95932.16;5067380;28;20988;-63
2023/11/10 02:03:45;;;;;;;0.25;0.20;;;;;;;5.46;100.00;95932.13;5063074;28;20123;-62
2023/11/10 02:06:11;;;;;;;1.80;0.22;;;;;;;5.43;100.00;95932.63;5060142;28;20032;-64
2023/11/10 02:08:38;;;;;;;0.63;0.30;;;;;;;5.39;100.00;95932.34;5063474;28;20078;-64
2023/11/10 02:11:05;;;;;;;1.00;0.40;;;;;;;5.40;100.00;95925.91;5049814;28;20388;-62
2023/11/10 02:13:31;;;;;;;1.63;0.45;;;;;;;5.46;100.00;95924.06;5065397;28;20116;-64
2023/11/10 02:15:58;;;;;;;0.47;0.30;;;;;;;5.47;100.00;95918.44;5065497;28;20090;-64
2023/11/10 02:18:25;;;;;;;0.20;0.20;;;;;;;5.51;100.00;95923.28;5046910;28;20041;-63
2023/11/10 02:20:52;;;;;;;0.30;0.30;;;;;;;5.52;100.00;95904.25;5064120;28;20045;-63
2023/11/10 02:23:21;;;;;;;1.73;0.20;;;;;;;5.49;100.00;95914.69;5064864;28;20044;-63
2023/11/10 02:25:52;;;;;;;0.50;0.30;;;;;;;5.59;100.00;95902.16;5064695;28;20123;-63
2023/11/10 02:28:19;;;;;;;1.48;0.28;;;;;;;5.82;100.00;95902.06;5066567;28;20396;-63
2023/11/10 02:30:45;;;;;;;2.35;0.40;;;;;;;5.71;100.00;95891.25;5065022;28;20124;-63
2023/11/10 02:33:12;;;;;;;0.50;0.35;;;;;;;5.68;100.00;95891.75;5061757;28;20082;-63
2023/11/10 02:35:39;;;;;;;1.02;0.40;;;;;;;5.64;100.00;95889.84;5063818;28;20523;-63
2023/11/10 02:38:08;;;;;;;0.63;0.28;;;;;;;5.67;100.00;95887.44;5064930;28;20044;-63
2023/11/10 02:40:34;;;;;;;0.38;0.30;;;;;;;5.72;100.00;95889.38;5064008;28;20045;-63
2023/11/10 02:43:02;;;;;;;1.13;0.40;;;;;;;5.79;100.00;95892.63;5065726;28;20560;-63
2023/11/10 02:45:28;;;;;;;2.72;0.30;;;;;;;5.82;100.00;95891.34;5061804;28;20037;-63
2023/11/10 02:47:56;;;;;;;2.60;0.40;;;;;;;5.92;100.00;95885.19;5061580;28;20032;-62
2023/11/10 02:50:23;;;;;;;5.20;0.52;;;;;;;5.81;100.00;95878.94;5060476;28;20120;-63
2023/11/10 02:52:49;;;;;;;1.13;0.50;;;;;;;5.90;100.00;95880.06;5065239;28;20044;-64
2023/11/10 02:55:16;;;;;;;0.50;0.28;;;;;;;5.91;100.00;95872.84;5063918;28;20052;-63
2023/11/10 02:57:43;;;;;;;2.05;0.32;;;;;;;5.60;100.00;95873.41;5063455;28;20043;-63
2023/11/10 03:00:10;;;;;;;1.50;0.45;;;;;;;5.41;100.00;95881.06;5055488;28;20120;-63
2023/11/10 03:02:37;;;;;;;3.88;0.50;;;;;;;5.26;100.00;95887.91;5063673;28;20051;-63
2023/11/10 03:05:04;;;;;;;0.57;0.32;;;;;;;5.20;100.00;95897.00;5062794;28;20119;-63
2023/11/10 03:07:32;;;;;;;0.52;0.40;;;;;;;5.10;100.00;95900.38;5063932;28;20052;-64
2023/11/10 03:09:59;;;;;;;2.13;0.50;;;;;;;5.05;100.00;95911.88;5062151;28;20040;-64
2023/11/10 03:12:25;;;;;;;0.65;0.32;;;;;;;5.01;100.00;95908.06;5059440;28;20098;-64
2023/11/10 03:14:52;;;;;;;2.20;0.60;;;;;;;4.98;100.00;95902.41;5068422;28;20600;-63
2023/11/10 03:17:19;;;;;;;0.98;0.50;;;;;;;4.93;100.00;95919.25;5064415;28;20064;-62
2023/11/10 03:19:45;;;;;;;2.30;0.50;;;;;;;4.91;100.00;95914.13;5063277;28;20041;-63
2023/11/10 03:22:13;;;;;;;0.88;0.50;;;;;;;5.01;100.00;95923.38;5062071;28;20583;-62
2023/11/10 03:24:40;;;;;;;0.57;0.32;;;;;;;5.07;100.00;95911.63;5062893;28;20033;-63
2023/11/10 03:27:09;;;;;;;0.95;0.30;;;;;;;5.11;100.00;95891.28;5065907;28;20089;-63
2023/11/10 03:29:35;;;;;;;1.08;0.50;;;;;;;5.09;100.00;95890.72;5064895;28;20047;-64
2023/11/10 03:32:06;;;;;;;0.60;0.35;;;;;;;5.15;100.00;95872.78;5044709;28;20045;-63
2023/11/10 03:34:34;;;;;;;0.88;0.55;;;;;;;5.13;100.00;95869.56;5043152;28;20514;-64
2023/11/10 03:37:00;;;;;;;0.60;0.30;;;;;;;5.18;100.00;95878.47;5064451;28;20041;-62
2023/11/10 03:39:27;;;;;;;1.60;0.60;;;;;;;5.19;100.00;95881.94;5049936;28;20128;-63
2023/11/10 03:41:59;;;;;;;0.73;0.30;;;;;;;5.33;100.00;95883.16;5063267;28;20641;-63
2023/11/10 03:44:27;;;;;;;0.85;0.40;;;;;;;5.26;100.00;95892.47;5065640;28;20064;-63
2023/11/10 03:46:54;;;;;;;1.35;0.80;;;;;;;5.30;100.00;95872.94;5063038;28;20044;-63
2023/11/10 03:49:20;;;;;;;2.00;0.47;;;;;;;5.35;100.00;95888.28;5033994;28;20515;-62
2023/11/10 03:51:47;;;;;;;0.80;0.38;;;;;;;5.30;100.00;95889.03;5063245;28;20040;-63
2023/11/10 03:54:14;;;;;;;0.30;0.30;;;;;;;5.25;100.00;95890.84;5062110;28;20036;-63
2023/11/10 03:56:40;;;;;;;1.02;0.63;;;;;;;5.26;100.00;95892.47;5062113;28;20491;-63
2023/11/10 03:59:07;;;;;;;0.77;0.35;;;;;;;5.33;100.00;95891.22;5060792;28;20040;-63
2023/11/10 04:01:38;;;;;;;0.55;0.30;;;;;;;5.34;100.00;95890.16;5064317;28;20135;-62
2023/11/10 04:04:07;;;;;;;0.70;0.40;;;;;;;5.37;100.00;95878.09;5062761;28;20064;-63
2023/11/10 04:06:34;;;;;;;0.82;0.40;;;;;;;5.35;100.00;95885.59;5062922;28;20040;-63
2023/11/10 04:09:08;;;;;;;0.30;0.30;;;;;;;5.33;100.00;95891.22;5060869;28;20041;-63
2023/11/10 04:11:35;;;;;;;1.95;0.30;;;;;;;5.28;100.00;95904.59;5060987;28;20046;-63
2023/11/10 04:14:01;;;;;;;1.25;0.40;;;;;;;5.21;100.00;95901.28;5061920;28;20041;-63
2023/11/10 04:16:28;;;;;;;0.22;0.22;;;;;;;5.26;100.00;95903.19;5064221;28;20047;-63
2023/11/10 04:18:55;;;;;;;0.77;0.40;;;;;;;5.28;100.00;95899.22;5066655;28;20062;-64
2023/11/10 04:21:29;;;;;;;1.30;0.43;;;;;;;5.28;100.00;95893.03;5064372;28;20044;-63
2023/11/10 04:23:57;;;;;;;0.47;0.20;;;;;;;5.30;100.00;95897.09;5060740;28;20040;-63
2023/11/10 04:26:23;;;;;;;0.50;0.40;;;;;;;5.26;100.00;95895.97;5046747;28;20551;-63
2023/11/10 04:28:50;;;;;;;3.25;0.38;;;;;;;5.30;100.00;95913.19;5061840;28;20115;-64
2023/11/10 04:31:18;;;;;;;0.52;0.25;;;;;;;5.39;100.00;95904.66;5065161;28;20048;-62
2023/11/10 04:33:45;;;;;;;0.57;0.28;;;;;;;5.44;100.00;95908.22;5065811;28;20585;-64
2023/11/10 04:36:12;;;;;;;0.60;0.22;;;;;;;5.46;100.00;95905.28;5068260;28;20041;-63
2023/11/10 04:38:43;;;;;;;0.22;0.20;;;;;;;5.41;100.00;95910.59;5047485;28;20128;-63
2023/11/10 04:41:10;;;;;;;0.52;0.40;;;;;;;5.37;100.00;95902.25;5047932;28;20074;-63
2023/11/10 04:43:37;;;;;;;1.02;0.30;;;;;;;5.45;100.00;95909.00;5068139;28;20060;-63
2023/11/10 04:46:04;;;;;;;0.63;0.30;;;;;;;5.37;100.00;95912.16;5069316;28;20033;-63
2023/11/10 04:48:31;;;;;;;0.65;0.30;;;;;;;5.35;100.00;95912.44;5067103;28;20032;-63
2023/11/10 04:50:58;;;;;;;0.50;0.30;;;;;;;5.37;100.00;95921.03;5047396;28;20054;-62
2023/11/10 04:53:24;;;;;;;2.92;0.63;;;;;;;5.41;100.00;95914.09;5062623;28;20044;-63
2023/11/10 04:55:51;;;;;;;1.45;0.30;;;;;;;5.42;100.00;95904.97;5064653;28;20052;-63
2023/11/10 04:58:17;;;;;;;0.75;0.30;;;;;;;5.44;100.00;95910.91;5065053;28;20043;-63
2023/11/10 05:00:44;;;;;;;2.72;0.43;;;;;;;5.45;100.00;95914.38;5064208;28;20119;-64
2023/11/10 05:03:12;;;;;;;0.40;0.22;;;;;;;5.45;100.00;95917.88;5064477;28;20040;-62
2023/11/10 05:05:39;;;;;;;0.98;0.45;;;;;;;5.46;100.00;95924.06;5065380;28;20036;-62
2023/11/10 05:08:06;;;;;;;1.27;0.40;;;;;;;5.52;100.00;95933.78;5063802;28;20116;-63
2023/11/10 05:10:32;;;;;;;0.20;0.20;;;;;;;5.63;100.00;95915.09;5069055;28;20067;-64
2023/11/10 05:12:59;;;;;;;0.43;0.20;;;;;;;5.70;100.00;95910.28;5064540;28;20117;-63
2023/11/10 05:15:26;;;;;;;0.63;0.28;;;;;;;5.75;100.00;95907.63;5048038;28;20044;-63
2023/11/10 05:17:52;;;;;;;0.20;0.20;;;;;;;5.83;100.00;95899.09;5065936;28;20116;-63
2023/11/10 05:20:19;;;;;;;0.45;0.30;;;;;;;5.75;100.00;95906.84;5049968;28;20926;-62
2023/11/10 05:22:46;;;;;;;0.40;0.20;;;;;;;5.70;100.00;95897.69;5066716;28;20036;-64
2023/11/10 05:25:13;;;;;;;0.98;0.50;;;;;;;5.70;100.00;95904.91;5064923;28;20048;-63
2023/11/10 05:27:39;;;;;;;6.63;2.15;;;;;;;5.62;100.00;95902.72;5063104;28;20047;-63
2023/11/10 05:30:09;;;;;;;4.47;1.75;;;;;;;5.56;100.00;95901.84;5066174;28;20052;-63
2023/11/10 05:32:35;;;;;;;2.58;0.93;;;;;;;5.46;100.00;95921.38;5065602;28;20497;-63
2023/11/10 05:35:02;;;;;;;3.00;0.93;;;;;;;5.46;100.00;95921.38;5066046;28;20048;-62
2023/11/10 05:37:29;;;;;;;1.60;0.75;;;;;;;5.41;100.00;95927.50;5060767;28;20115;-62
2023/11/10 05:39:55;;;;;;;3.85;1.20;;;;;;;5.39;100.00;95923.47;5066314;28;20123;-63
2023/11/10 05:42:22;;;;;;;4.55;1.00;;;;;;;5.44;100.00;95924.31;5064211;28;20040;-64
2023/11/10 05:44:49;;;;;;;3.88;1.33;;;;;;;5.40;100.00;95917.03;5068264;28;20044;-64
2023/11/10 05:47:17;;;;;;;3.05;1.20;;;;;;;5.41;100.00;95924.00;5047221;28;20600;-62
2023/11/10 05:49:43;;;;;;;4.20;1.40;;;;;;;5.43;100.00;95921.91;5067324;28;20043;-63
2023/11/10 05:52:11;;;;;;;1.60;0.70;;;;;;;5.34;100.00;95918.84;5061927;28;20044;-63
2023/11/10 05:54:39;;;;;;;3.15;0.95;;;;;;;5.36;100.00;95924.78;5064167;28;20071;-63
2023/11/10 05:57:06;;;;;;;0.65;0.43;;;;;;;5.36;100.00;95934.69;5064703;28;20523;-62
2023/11/10 05:59:33;;;;;;;0.60;0.40;;;;;;;5.40;100.00;95939.31;5064662;28;20047;-64
2023/11/10 06:02:00;;;;;;;0.77;0.57;;;;;;;5.41;100.00;95940.94;5063805;28;20052;-63
2023/11/10 06:04:27;;;;;;;2.20;0.80;;;;;;;5.37;100.00;95945.19;5064718;28;20040;-63
2023/11/10 06:07:01;;;;;;;1.42;0.50;;;;;;;5.42;100.00;95949.81;5061586;28;20114;-63
2023/11/10 06:09:30;;;;;;;2.38;0.63;;;;;;;5.44;100.00;95950.34;5065085;28;20040;-63
2023/11/10 06:11:58;;;;;;;1.08;0.60;;;;;;;5.38;100.00;95952.16;5064906;28;20037;-64
2023/11/10 06:14:24;;;;;;;1.23;0.60;;;;;;;5.29;100.00;95956.38;5063373;28;20653;-63
2023/11/10 06:16:51;;;;;;;1.48;0.57;;;;;;;5.45;100.00;95957.34;5064736;28;20040;-63
2023/11/10 06:19:17;;;;;;;1.23;0.68;;;;;;;5.50;100.00;95952.03;5064227;28;20049;-63
2023/11/10 06:21:44;;;;;;;4.20;1.40;;;;;;;5.46;100.00;95951.72;5064445;28;20036;-63
2023/11/10 06:24:11;;;;;;;1.45;0.77;;;;;;;5.50;100.00;95960.09;5064583;28;20119;-63
2023/11/10 06:26:38;;;;;;;1.30;0.60;;;;;;;5.47;100.00;95965.97;5062532;28;20669;-63
2023/11/10 06:29:05;;;;;;;1.17;0.50;;;;;;;5.53;100.00;95961.44;5066513;28;20408;-63
2023/11/10 06:31:32;;;;;;;0.75;0.40;;;;;;;5.48;100.00;95962.19;5066730;28;20047;-64
2023/11/10 06:33:59;;;;;;;1.85;0.73;;;;;;;5.41;100.00;95972.31;5066266;28;20503;-63
2023/11/10 06:36:26;;;;;;;1.45;0.70;;;;;;;5.43;100.00;95984.47;5064986;28;20048;-63
2023/11/10 06:38:52;;;;;;;0.75;0.50;;;;;;;5.52;100.00;95994.72;5058375;28;20051;-63
2023/11/10 06:41:19;;;;;;;2.65;0.95;;;;;;;5.55;100.00;96000.41;5060430;28;20051;-63
2023/11/10 06:43:46;;;;;;;1.45;0.82;;;;;;;5.53;100.00;95996.34;5067903;28;20049;-63
2023/11/10 06:46:20;;;;;;;2.92;0.95;;;;;;;5.52;100.00;96000.06;5061905;28;20041;-66
2023/11/10 06:48:48;;;;;;;1.60;0.75;;;;;;;5.58;100.00;96007.97;5040946;28;20506;-63
2023/11/10 06:51:15;;;;;;;2.13;0.80;;;;;;;5.59;100.00;96004.19;5059803;28;20134;-64
2023/11/10 06:53:41;;;;;;;1.77;0.70;;;;;;;5.36;100.00;96001.81;5062241;28;20052;-63
2023/11/10 06:56:09;;;;;;;3.63;0.82;;;;;;;5.41;100.00;95999.16;5062533;28;20043;-63
2023/11/10 06:58:37;;;;;;;2.70;0.77;;;;;;;5.41;100.00;96005.34;5057721;28;20519;-64
2023/11/10 07:01:06;;;;;;;2.05;0.77;;;;;;;5.47;100.00;96004.38;5058188;28;20121;-63
2023/11/10 07:03:32;;;;;;;0.90;0.70;;;;;;;5.55;100.00;96005.78;5056118;28;20695;-63
2023/11/10 07:06:02;;;;;;;5.35;2.58;;;;;;;5.54;100.00;95997.97;5057173;28;20033;-63
2023/11/10 07:08:28;;;;;;;2.30;0.82;;;;;;;5.41;100.00;95993.78;5058485;28;20040;-63
2023/11/10 07:10:59;;;;;;;2.28;1.10;;;;;;;5.52;100.00;95998.22;5043791;28;20044;-63
2023/11/10 07:13:27;;;;;;;2.25;0.90;;;;;;;5.55;100.00;96004.94;5061663;28;20109;-63
2023/11/10 07:15:54;;;;;;;2.72;0.70;;;;;;;5.57;100.00;96003.63;5060794;28;20045;-63
2023/11/10 07:18:22;;;;;;;1.98;0.90;;;;;;;5.63;100.00;96001.81;5064851;28;20159;-64
2023/11/10 07:20:49;;;;;;;3.38;0.95;;;;;;;5.62;100.00;96016.31;5062374;28;20036;-64
2023/11/10 07:23:15;;;;;;;1.38;0.68;;;;;;;5.73;100.00;96006.47;5061532;28;20056;-63
2023/11/10 07:25:43;;;;;;;1.35;0.40;;;;;;;5.90;100.00;96000.97;5043016;28;20123;-64
2023/11/10 07:28:10;;;;;;;0.90;0.40;;;;;;;5.85;100.00;95993.69;5059245;28;20128;-63
2023/11/10 07:30:39;;;;;;;0.73;0.40;;;;;;;5.92;100.00;96006.09;5061070;28;20045;-63
2023/11/10 07:33:07;;;;;;;0.63;0.40;;;;;;;5.79;100.00;96008.13;5062638;28;20128;-63
2023/11/10 07:35:35;;;;;;;2.38;0.80;;;;;;;5.74;100.00;96008.09;5060275;28;20791;-63
2023/11/10 07:38:04;;;;;;;1.45;0.50;;;;;;;5.83;100.00;96003.06;5061019;28;20072;-63
2023/11/10 07:40:30;;;;;;;1.48;0.60;;;;;;;5.70;100.00;96007.78;5057158;28;20041;-63
2023/11/10 07:42:57;;;;;;;1.67;0.80;;;;;;;5.81;100.00;96003.31;5063851;28;20044;-64
2023/11/10 07:45:24;;;;;;;3.13;0.80;;;;;;;5.84;100.00;95994.75;5060016;28;20082;-64
2023/11/10 07:47:52;;;;;;;2.33;0.80;;;;;;;5.93;100.00;96005.84;5060582;28;20539;-63
2023/11/10 07:50:20;;;;;;;2.10;0.93;;;;;;;5.90;100.00;96000.97;5061193;28;20071;-63
2023/11/10 07:52:47;;;;;;;3.45;0.77;;;;;;;5.91;100.00;95993.72;5058522;28;20499;-64
2023/11/10 07:55:14;;;;;;;1.92;0.88;;;;;;;5.94;100.00;96007.44;5060549;28;20079;-64
2023/11/10 07:57:42;;;;;;;2.70;0.77;;;;;;;5.98;100.00;96000.50;5060867;28;20044;-64
2023/11/10 08:00:13;;;;;;;0.95;0.60;;;;;;;6.02;100.00;96006.19;5057739;28;20040;-64
2023/11/10 08:02:41;;;;;;;1.42;0.75;;;;;;;6.06;100.00;96001.13;5060415;28;20407;-63
2023/11/10 08:05:08;;;;;;;3.80;0.80;;;;;;;5.97;100.00;96000.78;5060244;28;20120;-63
2023/11/10 08:07:36;;;;;;;1.90;0.90;;;;;;;5.91;100.00;96001.78;5060888;28;20093;-63
2023/11/10 08:10:02;;;;;;;1.98;0.80;;;;;;;5.85;100.00;95999.06;5047759;28;20048;-64
2023/11/10 08:12:32;;;;;;;2.45;1.10;;;;;;;5.75;100.00;95992.78;5060508;28;20055;-64
2023/11/10 08:15:00;;;;;;;2.22;0.95;;;;;;;5.67;100.00;95999.41;5060392;28;20389;-64
2023/11/10 08:17:28;;;;;;;1.65;1.08;;;;;;;5.66;100.00;96003.19;5059816;28;20044;-64
2023/11/10 08:19:55;;;;;;;1.63;0.80;;;;;;;5.67;100.00;96002.09;5061373;28;20060;-63
2023/11/10 08:22:22;;;;;;;2.30;0.95;;;;;;;5.75;100.00;96006.22;5060688;28;20060;-64
2023/11/10 08:24:50;;;;;;;3.85;1.00;;;;;;;5.88;100.00;96008.50;5060822;28;20048;-64
2023/11/10 08:27:17;;;;;;;3.13;0.90;;;;;;;6.00;100.00;96008.31;5058755;28;20041;-63
2023/11/10 08:29:44;;;;;;;1.60;0.80;;;;;;;6.14;100.00;96014.09;5058384;28;20057;-64
2023/11/10 08:32:11;;;;;;;1.88;0.77;;;;;;;6.27;100.00;96001.28;5063577;28;20055;-63
2023/11/10 08:34:37;;;;;;;2.25;0.95;;;;;;;6.42;100.00;96003.28;5060836;28;20486;-64
2023/11/10 08:37:04;;;;;;;1.42;0.50;;;;;;;6.54;100.00;96006.59;5058863;28;20040;-63
2023/11/10 08:39:31;;;;;;;3.25;0.88;;;;;;;6.56;100.00;96012.50;5060707;28;20051;-63
2023/11/10 08:41:58;;;;;;;3.05;0.88;;;;;;;6.55;100.00;95999.31;5059445;28;20037;-64
2023/11/10 08:44:26;;;;;;;1.52;0.50;;;;;;;6.51;100.00;96007.09;5060407;28;20094;-63
2023/11/10 08:46:54;;;;;;;1.02;0.55;;;;;;;6.31;100.00;96005.09;5057599;28;20123;-63
2023/11/10 08:49:20;;;;;;;1.08;0.50;;;;;;;6.34;100.00;96008.06;5060649;28;20052;-64
2023/11/10 08:51:48;;;;;;;1.60;0.55;;;;;;;6.38;100.00;96008.38;5043541;28;20049;-63
2023/11/10 08:54:16;;;;;;;1.58;0.47;;;;;;;6.35;100.00;96011.56;5059752;28;20790;-63
2023/11/10 08:56:44;;;;;;;1.13;0.50;;;;;;;6.45;100.00;96018.91;5059306;28;20047;-64
2023/11/10 08:59:11;;;;;;;1.05;0.50;;;;;;;6.59;100.00;96017.38;5060642;28;20040;-64
2023/11/10 09:01:37;;;;;;;0.85;0.50;;;;;;;6.76;100.00;96008.31;5060747;28;20071;-63
2023/11/10 09:04:05;;;;;;;0.73;0.40;;;;;;;6.94;100.00;96017.00;5061169;28;20626;-64
2023/11/10 09:06:47;;;;;;;1.15;0.50;;;;;;;7.16;100.00;96016.84;5060189;28;20047;-64
2023/11/10 09:09:14;;;;;;;0.45;0.38;;;;;;;7.27;100.00;96018.47;5059110;28;20080;-63
2023/11/10 09:11:41;;;;;;;1.42;0.32;;;;;;;7.44;100.00;96019.38;5061109;28;20048;-64
2023/11/10 09:14:09;;;;;;;1.35;0.30;;;;;;;7.71;100.00;96012.94;5064209;28;20139;-64
2023/11/10 09:16:36;;;;;;;0.50;0.20;;;;;;;7.85;100.00;96014.03;5042367;28;20040;-64
2023/11/10 09:19:03;;;;;;;0.85;0.30;;;;;;;7.77;100.00;96011.88;5064088;28;20044;-64
2023/11/10 09:21:30;;;;;;;0.70;0.30;;;;;;;7.59;100.00;96016.69;5063804;28;20040;-64
2023/11/10 09:23:58;;;;;;;2.17;0.50;;;;;;;7.40;100.00;96013.69;5046238;28;20036;-64
2023/11/10 09:26:24;;;;;;;1.40;0.60;;;;;;;7.22;100.00;96025.75;5063104;28;20051;-64
2023/11/10 09:28:51;;;;;;;1.08;0.50;;;;;;;7.16;100.00;96024.91;5044667;28;20466;-64
2023/11/10 09:31:18;;;;;;;1.67;0.60;;;;;;;7.13;100.00;96026.25;5063428;28;20631;-63
2023/11/10 09:33:45;;;;;;;1.15;0.40;;;;;;;7.24;100.00;96032.50;5063693;28;20135;-64
2023/11/10 09:36:12;;;;;;;1.50;0.60;;;;;;;7.28;100.00;96033.59;5063393;28;20044;-64
2023/11/10 09:38:38;;;;;;;0.68;0.35;;;;;;;7.27;100.00;96039.22;5063038;28;20487;-65
2023/11/10 09:41:14;;;;;;;3.42;0.90;;;;;;;7.47;100.00;96040.34;5062104;28;20049;-64
2023/11/10 09:43:43;;;;;;;1.13;0.35;;;;;;;7.52;100.00;96046.56;5064437;28;20032;-64
2023/11/10 09:46:11;;;;;;;1.00;0.22;;;;;;;7.59;100.00;96040.13;5063282;28;20589;-63
2023/11/10 09:48:41;;;;;;;1.08;0.30;;;;;;;7.79;100.00;96040.19;5063075;28;20862;-63
2023/11/10 09:51:10;;;;;;;0.93;0.20;;;;;;;7.78;100.00;96037.75;5060240;28;20106;-64
2023/11/10 09:53:38;;;;;;;1.98;0.30;;;;;;;8.01;100.00;96022.16;5061141;28;20043;-63
2023/11/10 09:56:06;;;;;;;1.20;0.38;;;;;;;8.06;100.00;96032.91;5062757;28;20041;-63
2023/11/10 09:58:33;;;;;;;2.92;0.40;;;;;;;7.93;100.00;96018.91;5063479;28;20043;-64
2023/11/10 10:01:01;;;;;;;0.80;0.40;;;;;;;7.85;100.00;96022.13;5039020;28;20515;-64
2023/11/10 10:03:28;;;;;;;1.38;0.60;;;;;;;7.66;100.00;96019.94;5062121;28;20450;-64
2023/11/10 10:05:59;;;;;;;1.33;0.43;;;;;;;7.70;100.00;96020.22;5059799;28;20040;-64
2023/11/10 10:08:25;;;;;;;2.25;0.70;;;;;;;7.60;100.00;96017.50;5058917;28;20048;-64
2023/11/10 10:10:52;;;;;;;1.08;0.47;;;;;;;7.60;100.00;96026.41;5062584;28;20044;-64
2023/11/10 10:13:21;;;;;;;1.45;0.40;;;;;;;7.81;100.00;96019.16;5061243;28;20519;-64
2023/11/10 10:15:47;;;;;;;0.30;0.30;;;;;;;7.94;100.00;96015.16;5048606;28;20052;-65
2023/11/10 10:18:16;;;;;;;1.00;0.40;;;;;;;8.09;100.00;96005.44;5061758;28;20048;-63
2023/11/10 10:20:46;;;;;;;0.30;0.30;;;;;;;8.18;100.00;96006.50;5060616;28;20040;-65
2023/11/10 10:23:14;;;;;;;4.13;0.40;;;;;;;8.22;100.00;96003.28;5061511;28;20571;-63
2023/11/10 10:25:41;;;;;;;0.85;0.38;;;;;;;8.19;100.00;96000.03;5061846;28;20044;-63
2023/11/10 10:28:08;;;;;;;3.63;0.50;;;;;;;8.05;100.00;96005.19;5062543;28;20036;-63
2023/11/10 10:30:36;;;;;;;0.95;0.30;;;;;;;7.77;100.00;96006.47;5061026;28;20048;-63
2023/11/10 10:33:05;;;;;;;0.45;0.28;;;;;;;7.87;100.00;95995.72;5062078;28;20673;-64
2023/11/10 10:35:32;;;;;;;1.75;0.20;;;;;;;7.81;100.00;95991.38;5059124;28;20033;-63
2023/11/10 10:38:04;;;;;;;1.60;0.40;;;;;;;7.61;100.00;95989.50;5044913;28;20047;-64
2023/11/10 10:40:35;;;;;;;0.50;0.20;;;;;;;7.68;100.00;95990.84;5058853;28;20047;-67
2023/11/10 10:43:02;;;;;;;1.15;0.50;;;;;;;7.91;100.00;95988.72;5060853;28;20040;-63
2023/11/10 10:45:32;;;;;;;0.63;0.30;;;;;;;7.89;100.00;95985.47;5058830;28;20592;-62
2023/11/10 10:48:03;;;;;;;;;;;;;;;7.89;100.00;95987.38;5059761;28;20042;-63
2023/11/10 10:50:33;;;;;;;1.70;0.30;;;;;;;8.15;100.00;95996.25;5059659;28;20541;-62
2023/11/10 10:53:00;;;;;;;3.38;0.60;;;;;;;8.19;100.00;95991.94;5043765;28;20411;-62
2023/11/10 10:55:27;;;;;;;0.80;0.38;;;;;;;8.32;100.00;96000.56;5059279;28;20052;-62
2023/11/10 10:57:54;;;;;;;2.60;0.40;;;;;;;8.48;100.00;95995.16;5061586;28;20447;-63
2023/11/10 11:00:23;;;;;;;1.48;0.30;;;;;;;8.73;100.00;95994.31;5043481;28;20048;-63
2023/11/10 11:02:58;;;;;;;5.50;1.17;;;;;;;8.86;99.13;95992.94;5060505;28;20068;-62
2023/11/10 11:05:53;;;;;;;0.68;0.50;;;;;;;9.11;96.08;95978.53;5043937;28;20135;-64
2023/11/10 11:08:40;;;;;;;1.08;0.30;;;;;;;9.07;91.68;95982.06;5060470;28;20040;-62
2023/11/10 11:11:27;;;;;;;1.15;0.40;;;;;;;8.85;90.99;95980.53;5040167;28;20044;-63
2023/11/10 11:14:25;;;;;;;0.85;0.30;;;;;;;8.54;91.66;95983.28;5061755;28;20059;-63
2023/11/10 11:17:34;;;;;;;1.17;0.20;;;;;;;8.42;90.74;95986.25;5061109;28;20040;-62
2023/11/10 11:20:02;;;;;;;1.73;0.40;;;;;;;8.09;93.43;95983.88;5058627;28;20879;-63
2023/11/10 11:22:32;;;;;;;1.38;0.40;;;;;;;8.07;92.72;95983.31;5058858;28;20131;-62
2023/11/10 11:25:09;;;;;;;2.42;0.50;;;;;;;8.09;94.01;95977.66;5061685;28;20050;-63
2023/11/10 11:27:37;;;;;;;1.33;0.60;;;;;;;8.02;94.69;95967.97;5058603;28;20454;-63
2023/11/10 11:30:09;;;;;;;0.55;0.32;;;;;;;8.08;92.38;95974.16;5061962;28;20458;-62
2023/11/10 11:32:42;;;;;;;1.60;0.40;;;;;;;8.13;89.03;95968.78;5059801;28;20036;-63
2023/11/10 11:35:15;;;;;;;2.58;0.30;;;;;;;8.11;87.51;95976.31;5060842;28;20111;-63
2023/11/10 11:37:43;;;;;;;1.63;0.38;;;;;;;8.32;87.41;95970.91;5059532;28;20036;-63